createdAt,value
2023-02-07T00:03:08.626Z,1031.394
2023-02-07T00:23:07.408Z,1031.242
2023-02-07T00:43:07.256Z,1030.934
2023-02-07T01:03:07.960Z,1030.824
2023-02-07T01:23:07.920Z,1030.685
2023-02-07T01:43:08.028Z,1030.698
2023-02-07T02:03:08.767Z,1030.678
2023-02-07T02:23:07.687Z,1030.61
2023-02-07T02:43:07.435Z,1030.463
2023-02-07T03:03:08.128Z,1030.455
2023-02-07T03:23:07.934Z,1030.468
2023-02-07T03:43:07.834Z,1030.491
2023-02-07T04:03:09.122Z,1030.466
2023-02-07T04:23:08.125Z,1030.336
2023-02-07T04:43:07.923Z,1030.517
2023-02-07T05:03:08.735Z,1030.504
2023-02-07T05:23:07.503Z,1030.457
2023-02-07T05:43:07.699Z,1030.428
2023-02-07T06:03:08.638Z,1030.537
2023-02-07T06:23:07.350Z,1030.95
2023-02-07T06:43:09.588Z,1031.034
2023-02-07T07:03:08.471Z,1031.137
2023-02-07T07:23:07.311Z,1031.235
2023-02-07T07:43:07.035Z,1031.374
2023-02-07T08:03:08.789Z,1031.478
2023-02-07T08:23:07.724Z,1031.527
2023-02-07T08:43:07.460Z,1031.47
2023-02-07T09:03:08.382Z,1031.41
2023-02-07T09:23:07.172Z,1031.265
2023-02-07T09:43:08.774Z,1031.069
2023-02-07T10:03:08.745Z,1031.153
2023-02-07T10:23:07.639Z,1031.31
2023-02-07T10:43:08.000Z,1031.356
2023-02-07T11:03:09.164Z,1031.293
2023-02-07T11:23:07.905Z,1031.08
2023-02-07T11:43:07.923Z,1030.947
2023-02-07T12:03:08.975Z,1030.845
2023-02-07T12:23:43.937Z,1030.773
2023-02-07T12:43:07.969Z,1030.754
2023-02-07T13:03:08.769Z,1030.579
2023-02-07T13:23:07.574Z,1030.47
2023-02-07T13:43:07.549Z,1030.348
2023-02-07T14:03:08.529Z,1030.335
2023-02-07T14:23:07.522Z,1030.184
2023-02-07T14:43:07.421Z,1030.165
2023-02-07T15:03:08.272Z,1030.159
2023-02-07T15:23:07.285Z,1030.304
2023-02-07T15:43:07.259Z,1030.355
2023-02-07T16:03:08.582Z,1030.402
2023-02-07T16:23:07.467Z,1030.272
2023-02-07T16:43:07.731Z,1030.163
2023-02-07T17:03:08.814Z,1030.203
2023-02-07T17:23:07.659Z,1030.269
2023-02-07T17:43:07.662Z,1030.407
2023-02-07T18:03:08.678Z,1030.558
2023-02-07T18:23:07.622Z,1030.461
2023-02-07T18:43:07.570Z,1030.423
2023-02-07T19:03:08.681Z,1030.379
2023-02-07T19:23:07.623Z,1030.352
2023-02-07T19:43:07.625Z,1030.39
2023-02-07T20:03:08.546Z,1030.351
2023-02-07T20:23:07.396Z,1030.219
2023-02-07T20:43:07.515Z,1030.126
2023-02-07T21:03:08.596Z,1030.272
2023-02-07T21:23:07.592Z,1030.311
2023-02-07T21:43:07.978Z,1030.292
2023-02-07T22:03:09.036Z,1030.28
2023-02-07T22:23:08.028Z,1030.212
2023-02-07T22:43:08.058Z,1030.108
2023-02-07T23:03:08.395Z,1030.136
2023-02-07T23:23:07.218Z,1030.205
2023-02-07T23:43:07.700Z,1030.297
